sensor_id;sensor_type;location;lat;lon;timestamp;P1;durP1;ratioP1;P2;durP2;ratioP2
7529;SDS011;3806;52.270;10.544;2023-05-20T00:00:50;4.57;;;1.88;;
7529;SDS011;3806;52.270;10.544;2023-05-20T00:03:17;2.88;;;1.40;;
7529;SDS011;3806;52.270;10.544;2023-05-20T00:05:46;4.43;;;1.98;;
7529;SDS011;3806;52.270;10.544;2023-05-20T00:08:11;2.33;;;1.45;;
7529;SDS011;3806;52.270;10.544;2023-05-20T00:10:37;3.00;;;1.60;;
7529;SDS011;3806;52.270;10.544;2023-05-20T00:13:03;2.17;;;1.60;;
7529;SDS011;3806;52.270;10.544;2023-05-20T00:15:29;1.58;;;1.42;;
7529;SDS011;3806;52.270;10.544;2023-05-20T00:17:55;3.15;;;1.95;;
7529;SDS011;3806;52.270;10.544;2023-05-20T00:20:21;2.33;;;1.67;;
7529;SDS011;3806;52.270;10.544;2023-05-20T00:22:46;2.03;;;1.58;;
7529;SDS011;3806;52.270;10.544;2023-05-20T00:25:12;4.63;;;1.50;;
7529;SDS011;3806;52.270;10.544;2023-05-20T00:27:41;3.15;;;1.95;;
7529;SDS011;3806;52.270;10.544;2023-05-20T00:30:07;2.80;;;1.35;;
7529;SDS011;3806;52.270;10.544;2023-05-20T00:32:33;5.43;;;1.70;;
7529;SDS011;3806;52.270;10.544;2023-05-20T00:34:58;2.28;;;1.50;;
7529;SDS011;3806;52.270;10.544;2023-05-20T00:37:24;1.75;;;1.38;;
7529;SDS011;3806;52.270;10.544;2023-05-20T00:39:50;2.80;;;1.70;;
7529;SDS011;3806;52.270;10.544;2023-05-20T00:42:22;4.18;;;1.80;;
7529;SDS011;3806;52.270;10.544;2023-05-20T00:44:51;3.17;;;2.20;;
7529;SDS011;3806;52.270;10.544;2023-05-20T00:47:18;2.90;;;1.70;;
7529;SDS011;3806;52.270;10.544;2023-05-20T00:49:50;2.20;;;1.70;;
7529;SDS011;3806;52.270;10.544;2023-05-20T00:52:16;1.95;;;1.60;;
7529;SDS011;3806;52.270;10.544;2023-05-20T00:54:43;3.30;;;2.25;;
7529;SDS011;3806;52.270;10.544;2023-05-20T00:57:09;3.20;;;1.50;;
7529;SDS011;3806;52.270;10.544;2023-05-20T00:59:36;3.30;;;1.70;;
7529;SDS011;3806;52.270;10.544;2023-05-20T01:02:02;3.13;;;1.55;;
7529;SDS011;3806;52.270;10.544;2023-05-20T01:04:29;2.58;;;1.60;;
7529;SDS011;3806;52.270;10.544;2023-05-20T01:06:56;3.20;;;1.80;;
7529;SDS011;3806;52.270;10.544;2023-05-20T01:09:25;2.90;;;1.80;;
7529;SDS011;3806;52.270;10.544;2023-05-20T01:11:54;3.15;;;1.63;;
7529;SDS011;3806;52.270;10.544;2023-05-20T01:14:25;3.17;;;1.88;;
7529;SDS011;3806;52.270;10.544;2023-05-20T01:16:54;3.20;;;1.35;;
7529;SDS011;3806;52.270;10.544;2023-05-20T01:19:26;3.83;;;2.28;;
7529;SDS011;3806;52.270;10.544;2023-05-20T01:22:02;2.05;;;1.63;;
7529;SDS011;3806;52.270;10.544;2023-05-20T01:24:31;6.10;;;2.47;;
7529;SDS011;3806;52.270;10.544;2023-05-20T01:26:57;2.85;;;1.55;;
7529;SDS011;3806;52.270;10.544;2023-05-20T01:29:25;3.38;;;1.67;;
7529;SDS011;3806;52.270;10.544;2023-05-20T01:31:52;3.83;;;1.98;;
7529;SDS011;3806;52.270;10.544;2023-05-20T01:34:18;2.67;;;1.58;;
7529;SDS011;3806;52.270;10.544;2023-05-20T01:36:44;3.22;;;1.85;;
7529;SDS011;3806;52.270;10.544;2023-05-20T01:39:11;2.75;;;1.80;;
7529;SDS011;3806;52.270;10.544;2023-05-20T01:41:37;5.07;;;2.25;;
7529;SDS011;3806;52.270;10.544;2023-05-20T01:44:03;4.70;;;1.67;;
7529;SDS011;3806;52.270;10.544;2023-05-20T01:46:32;2.63;;;1.73;;
7529;SDS011;3806;52.270;10.544;2023-05-20T01:48:58;3.22;;;2.05;;
7529;SDS011;3806;52.270;10.544;2023-05-20T01:51:24;2.88;;;1.73;;
7529;SDS011;3806;52.270;10.544;2023-05-20T01:53:49;2.47;;;1.60;;
7529;SDS011;3806;52.270;10.544;2023-05-20T01:56:15;2.30;;;1.88;;
7529;SDS011;3806;52.270;10.544;2023-05-20T01:58:40;2.75;;;1.58;;
7529;SDS011;3806;52.270;10.544;2023-05-20T02:01:06;3.83;;;1.70;;
7529;SDS011;3806;52.270;10.544;2023-05-20T02:03:31;3.47;;;1.58;;
7529;SDS011;3806;52.270;10.544;2023-05-20T02:05:57;3.13;;;1.80;;
7529;SDS011;3806;52.270;10.544;2023-05-20T02:08:22;2.40;;;2.00;;
7529;SDS011;3806;52.270;10.544;2023-05-20T02:10:48;4.00;;;1.92;;
7529;SDS011;3806;52.270;10.544;2023-05-20T02:13:13;13.27;;;2.40;;
7529;SDS011;3806;52.270;10.544;2023-05-20T02:15:40;4.93;;;2.20;;
7529;SDS011;3806;52.270;10.544;2023-05-20T02:18:06;2.13;;;1.55;;
7529;SDS011;3806;52.270;10.544;2023-05-20T02:20:34;3.47;;;1.77;;
7529;SDS011;3806;52.270;10.544;2023-05-20T02:23:00;3.35;;;1.50;;
7529;SDS011;3806;52.270;10.544;2023-05-20T02:25:27;3.60;;;1.98;;
7529;SDS011;3806;52.270;10.544;2023-05-20T02:27:52;3.40;;;2.00;;
7529;SDS011;3806;52.270;10.544;2023-05-20T02:30:17;2.88;;;1.80;;
7529;SDS011;3806;52.270;10.544;2023-05-20T02:32:43;4.63;;;2.28;;
7529;SDS011;3806;52.270;10.544;2023-05-20T02:35:08;2.45;;;1.88;;
7529;SDS011;3806;52.270;10.544;2023-05-20T02:37:34;2.30;;;1.90;;
7529;SDS011;3806;52.270;10.544;2023-05-20T02:39:59;2.85;;;2.17;;
7529;SDS011;3806;52.270;10.544;2023-05-20T02:42:25;4.82;;;1.92;;
7529;SDS011;3806;52.270;10.544;2023-05-20T02:44:50;2.80;;;1.65;;
7529;SDS011;3806;52.270;10.544;2023-05-20T02:47:20;3.75;;;2.00;;
7529;SDS011;3806;52.270;10.544;2023-05-20T02:49:45;3.35;;;1.73;;
7529;SDS011;3806;52.270;10.544;2023-05-20T02:52:11;2.97;;;1.83;;
7529;SDS011;3806;52.270;10.544;2023-05-20T02:54:37;4.25;;;1.95;;
7529;SDS011;3806;52.270;10.544;2023-05-20T02:57:02;3.70;;;2.20;;
7529;SDS011;3806;52.270;10.544;2023-05-20T02:59:28;4.40;;;2.03;;
7529;SDS011;3806;52.270;10.544;2023-05-20T03:01:53;4.95;;;2.13;;
7529;SDS011;3806;52.270;10.544;2023-05-20T03:04:19;2.92;;;1.67;;
7529;SDS011;3806;52.270;10.544;2023-05-20T03:06:45;2.60;;;1.83;;
7529;SDS011;3806;52.270;10.544;2023-05-20T03:09:11;3.40;;;2.20;;
7529;SDS011;3806;52.270;10.544;2023-05-20T03:11:38;2.75;;;1.80;;
7529;SDS011;3806;52.270;10.544;2023-05-20T03:14:03;4.47;;;1.80;;
7529;SDS011;3806;52.270;10.544;2023-05-20T03:16:28;3.00;;;1.67;;
7529;SDS011;3806;52.270;10.544;2023-05-20T03:18:54;1.80;;;1.50;;
7529;SDS011;3806;52.270;10.544;2023-05-20T03:21:19;3.08;;;1.77;;
7529;SDS011;3806;52.270;10.544;2023-05-20T03:23:47;4.07;;;1.98;;
7529;SDS011;3806;52.270;10.544;2023-05-20T03:26:13;4.55;;;2.30;;
7529;SDS011;3806;52.270;10.544;2023-05-20T03:28:38;4.10;;;2.13;;
7529;SDS011;3806;52.270;10.544;2023-05-20T03:31:04;3.35;;;1.80;;
7529;SDS011;3806;52.270;10.544;2023-05-20T03:33:30;2.88;;;1.77;;
7529;SDS011;3806;52.270;10.544;2023-05-20T03:35:57;5.82;;;2.25;;
7529;SDS011;3806;52.270;10.544;2023-05-20T03:38:23;2.55;;;1.88;;
7529;SDS011;3806;52.270;10.544;2023-05-20T03:40:48;4.20;;;1.77;;
7529;SDS011;3806;52.270;10.544;2023-05-20T03:43:14;2.90;;;1.90;;
7529;SDS011;3806;52.270;10.544;2023-05-20T03:45:39;3.22;;;1.75;;
7529;SDS011;3806;52.270;10.544;2023-05-20T03:48:05;2.53;;;1.88;;
7529;SDS011;3806;52.270;10.544;2023-05-20T03:50:30;3.03;;;1.92;;
7529;SDS011;3806;52.270;10.544;2023-05-20T03:52:56;4.22;;;2.08;;
7529;SDS011;3806;52.270;10.544;2023-05-20T03:55:21;3.92;;;1.75;;
7529;SDS011;3806;52.270;10.544;2023-05-20T03:57:48;2.38;;;1.60;;
7529;SDS011;3806;52.270;10.544;2023-05-20T04:00:14;3.08;;;1.95;;
7529;SDS011;3806;52.270;10.544;2023-05-20T04:02:40;2.92;;;2.15;;
7529;SDS011;3806;52.270;10.544;2023-05-20T04:05:06;5.20;;;2.10;;
7529;SDS011;3806;52.270;10.544;2023-05-20T04:07:35;2.83;;;1.90;;
7529;SDS011;3806;52.270;10.544;2023-05-20T04:10:01;2.55;;;1.95;;
7529;SDS011;3806;52.270;10.544;2023-05-20T04:12:28;2.22;;;1.83;;
7529;SDS011;3806;52.270;10.544;2023-05-20T04:14:59;3.65;;;2.05;;
7529;SDS011;3806;52.270;10.544;2023-05-20T04:17:28;2.40;;;1.90;;
7529;SDS011;3806;52.270;10.544;2023-05-20T04:19:54;3.28;;;2.30;;
7529;SDS011;3806;52.270;10.544;2023-05-20T04:22:20;3.50;;;2.17;;
7529;SDS011;3806;52.270;10.544;2023-05-20T04:24:46;3.47;;;2.05;;
7529;SDS011;3806;52.270;10.544;2023-05-20T04:27:11;3.58;;;2.10;;
7529;SDS011;3806;52.270;10.544;2023-05-20T04:29:37;2.35;;;1.95;;
7529;SDS011;3806;52.270;10.544;2023-05-20T04:32:05;2.25;;;1.70;;
7529;SDS011;3806;52.270;10.544;2023-05-20T04:34:31;5.60;;;1.90;;
7529;SDS011;3806;52.270;10.544;2023-05-20T04:36:59;2.97;;;2.20;;
7529;SDS011;3806;52.270;10.544;2023-05-20T04:39:25;2.75;;;1.63;;
7529;SDS011;3806;52.270;10.544;2023-05-20T04:41:50;2.63;;;1.70;;
7529;SDS011;3806;52.270;10.544;2023-05-20T04:44:18;2.30;;;1.55;;
7529;SDS011;3806;52.270;10.544;2023-05-20T04:46:44;5.28;;;1.95;;
7529;SDS011;3806;52.270;10.544;2023-05-20T04:49:10;1.90;;;1.73;;
7529;SDS011;3806;52.270;10.544;2023-05-20T04:51:35;3.97;;;2.08;;
7529;SDS011;3806;52.270;10.544;2023-05-20T04:54:01;5.40;;;1.92;;
7529;SDS011;3806;52.270;10.544;2023-05-20T04:56:26;3.03;;;2.00;;
7529;SDS011;3806;52.270;10.544;2023-05-20T04:58:52;4.38;;;2.00;;
7529;SDS011;3806;52.270;10.544;2023-05-20T05:01:18;3.92;;;2.03;;
7529;SDS011;3806;52.270;10.544;2023-05-20T05:03:44;4.20;;;2.00;;
7529;SDS011;3806;52.270;10.544;2023-05-20T05:06:09;3.58;;;2.15;;
7529;SDS011;3806;52.270;10.544;2023-05-20T05:08:35;4.10;;;2.20;;
7529;SDS011;3806;52.270;10.544;2023-05-20T05:11:00;3.35;;;2.30;;
7529;SDS011;3806;52.270;10.544;2023-05-20T05:13:26;2.72;;;1.98;;
7529;SDS011;3806;52.270;10.544;2023-05-20T05:15:58;3.75;;;2.47;;
7529;SDS011;3806;52.270;10.544;2023-05-20T05:18:24;2.97;;;1.95;;
7529;SDS011;3806;52.270;10.544;2023-05-20T05:20:56;4.03;;;1.95;;
7529;SDS011;3806;52.270;10.544;2023-05-20T05:23:23;2.33;;;2.10;;
7529;SDS011;3806;52.270;10.544;2023-05-20T05:25:51;3.60;;;2.78;;
7529;SDS011;3806;52.270;10.544;2023-05-20T05:28:17;3.97;;;2.25;;
7529;SDS011;3806;52.270;10.544;2023-05-20T05:30:42;4.53;;;2.65;;
7529;SDS011;3806;52.270;10.544;2023-05-20T05:33:08;5.05;;;2.25;;
7529;SDS011;3806;52.270;10.544;2023-05-20T05:35:33;4.32;;;2.25;;
7529;SDS011;3806;52.270;10.544;2023-05-20T05:37:59;3.75;;;2.50;;
7529;SDS011;3806;52.270;10.544;2023-05-20T05:40:25;5.78;;;2.25;;
7529;SDS011;3806;52.270;10.544;2023-05-20T05:42:51;3.33;;;2.15;;
7529;SDS011;3806;52.270;10.544;2023-05-20T05:45:16;4.53;;;2.25;;
7529;SDS011;3806;52.270;10.544;2023-05-20T05:47:42;5.07;;;2.20;;
7529;SDS011;3806;52.270;10.544;2023-05-20T05:50:07;3.90;;;2.00;;
7529;SDS011;3806;52.270;10.544;2023-05-20T05:52:34;4.00;;;2.63;;
7529;SDS011;3806;52.270;10.544;2023-05-20T05:55:00;3.58;;;2.25;;
7529;SDS011;3806;52.270;10.544;2023-05-20T05:57:25;5.28;;;2.78;;
7529;SDS011;3806;52.270;10.544;2023-05-20T05:59:51;7.25;;;2.90;;
7529;SDS011;3806;52.270;10.544;2023-05-20T06:02:16;5.95;;;2.75;;
7529;SDS011;3806;52.270;10.544;2023-05-20T06:04:42;6.38;;;2.95;;
7529;SDS011;3806;52.270;10.544;2023-05-20T06:07:07;5.07;;;2.75;;
7529;SDS011;3806;52.270;10.544;2023-05-20T06:09:33;5.85;;;2.70;;
7529;SDS011;3806;52.270;10.544;2023-05-20T06:11:59;4.35;;;2.78;;
7529;SDS011;3806;52.270;10.544;2023-05-20T06:14:24;4.15;;;2.78;;
7529;SDS011;3806;52.270;10.544;2023-05-20T06:16:50;4.20;;;2.53;;
7529;SDS011;3806;52.270;10.544;2023-05-20T06:19:15;4.93;;;2.95;;
7529;SDS011;3806;52.270;10.544;2023-05-20T06:21:41;4.35;;;2.72;;
7529;SDS011;3806;52.270;10.544;2023-05-20T06:24:06;4.22;;;2.65;;
7529;SDS011;3806;52.270;10.544;2023-05-20T06:26:32;5.90;;;3.38;;
7529;SDS011;3806;52.270;10.544;2023-05-20T06:28:57;6.10;;;3.65;;
7529;SDS011;3806;52.270;10.544;2023-05-20T06:31:23;7.90;;;3.33;;
7529;SDS011;3806;52.270;10.544;2023-05-20T06:33:49;7.88;;;3.67;;
7529;SDS011;3806;52.270;10.544;2023-05-20T06:36:15;5.30;;;3.33;;
7529;SDS011;3806;52.270;10.544;2023-05-20T06:38:41;4.35;;;3.60;;
7529;SDS011;3806;52.270;10.544;2023-05-20T06:41:07;6.50;;;3.85;;
7529;SDS011;3806;52.270;10.544;2023-05-20T06:43:32;5.32;;;3.15;;
7529;SDS011;3806;52.270;10.544;2023-05-20T06:45:58;5.95;;;3.58;;
7529;SDS011;3806;52.270;10.544;2023-05-20T06:48:24;3.92;;;2.90;;
7529;SDS011;3806;52.270;10.544;2023-05-20T06:50:49;5.20;;;3.28;;
7529;SDS011;3806;52.270;10.544;2023-05-20T06:53:15;4.65;;;2.92;;
7529;SDS011;3806;52.270;10.544;2023-05-20T06:55:40;5.65;;;3.33;;
7529;SDS011;3806;52.270;10.544;2023-05-20T06:58:06;6.13;;;3.88;;
7529;SDS011;3806;52.270;10.544;2023-05-20T07:00:31;7.90;;;4.10;;
7529;SDS011;3806;52.270;10.544;2023-05-20T07:02:57;6.13;;;4.00;;
7529;SDS011;3806;52.270;10.544;2023-05-20T07:05:22;6.38;;;4.03;;
7529;SDS011;3806;52.270;10.544;2023-05-20T07:07:48;7.00;;;4.15;;
7529;SDS011;3806;52.270;10.544;2023-05-20T07:10:14;6.65;;;3.58;;
7529;SDS011;3806;52.270;10.544;2023-05-20T07:12:40;5.00;;;3.55;;
7529;SDS011;3806;52.270;10.544;2023-05-20T07:15:05;8.48;;;4.07;;
7529;SDS011;3806;52.270;10.544;2023-05-20T07:17:31;5.20;;;3.78;;
7529;SDS011;3806;52.270;10.544;2023-05-20T07:19:57;8.13;;;4.13;;
7529;SDS011;3806;52.270;10.544;2023-05-20T07:22:22;6.45;;;3.90;;
7529;SDS011;3806;52.270;10.544;2023-05-20T07:24:48;7.07;;;4.07;;
7529;SDS011;3806;52.270;10.544;2023-05-20T07:27:13;8.38;;;3.65;;
7529;SDS011;3806;52.270;10.544;2023-05-20T07:29:39;7.80;;;4.30;;
7529;SDS011;3806;52.270;10.544;2023-05-20T07:32:05;6.32;;;4.35;;
7529;SDS011;3806;52.270;10.544;2023-05-20T07:34:32;5.72;;;3.63;;
7529;SDS011;3806;52.270;10.544;2023-05-20T07:36:58;7.75;;;4.60;;
7529;SDS011;3806;52.270;10.544;2023-05-20T07:39:23;6.30;;;3.85;;
7529;SDS011;3806;52.270;10.544;2023-05-20T07:41:49;6.93;;;4.00;;
7529;SDS011;3806;52.270;10.544;2023-05-20T07:44:15;9.50;;;4.15;;
7529;SDS011;3806;52.270;10.544;2023-05-20T07:46:42;7.00;;;4.53;;
7529;SDS011;3806;52.270;10.544;2023-05-20T07:49:08;7.95;;;4.05;;
7529;SDS011;3806;52.270;10.544;2023-05-20T07:51:34;5.70;;;3.72;;
7529;SDS011;3806;52.270;10.544;2023-05-20T07:54:00;7.97;;;4.15;;
7529;SDS011;3806;52.270;10.544;2023-05-20T07:56:26;5.72;;;3.75;;
7529;SDS011;3806;52.270;10.544;2023-05-20T07:58:53;7.40;;;3.80;;
7529;SDS011;3806;52.270;10.544;2023-05-20T08:01:24;7.63;;;4.32;;
7529;SDS011;3806;52.270;10.544;2023-05-20T08:03:50;6.75;;;3.65;;
7529;SDS011;3806;52.270;10.544;2023-05-20T08:06:15;6.22;;;3.72;;
7529;SDS011;3806;52.270;10.544;2023-05-20T08:08:41;7.10;;;3.67;;
7529;SDS011;3806;52.270;10.544;2023-05-20T08:11:07;5.45;;;3.75;;
7529;SDS011;3806;52.270;10.544;2023-05-20T08:13:33;6.30;;;3.30;;
7529;SDS011;3806;52.270;10.544;2023-05-20T08:15:59;4.82;;;3.92;;
7529;SDS011;3806;52.270;10.544;2023-05-20T08:18:25;7.07;;;3.95;;
7529;SDS011;3806;52.270;10.544;2023-05-20T08:20:51;5.90;;;3.45;;
7529;SDS011;3806;52.270;10.544;2023-05-20T08:23:17;6.32;;;3.25;;
7529;SDS011;3806;52.270;10.544;2023-05-20T08:25:42;5.40;;;3.28;;
7529;SDS011;3806;52.270;10.544;2023-05-20T08:28:10;12.50;;;4.22;;
7529;SDS011;3806;52.270;10.544;2023-05-20T08:30:36;5.88;;;4.05;;
7529;SDS011;3806;52.270;10.544;2023-05-20T08:33:02;8.43;;;3.22;;
7529;SDS011;3806;52.270;10.544;2023-05-20T08:35:27;5.32;;;3.53;;
7529;SDS011;3806;52.270;10.544;2023-05-20T08:37:53;6.13;;;3.38;;
7529;SDS011;3806;52.270;10.544;2023-05-20T08:40:19;6.55;;;2.97;;
7529;SDS011;3806;52.270;10.544;2023-05-20T08:42:45;4.68;;;3.10;;
7529;SDS011;3806;52.270;10.544;2023-05-20T08:45:13;3.75;;;2.67;;
7529;SDS011;3806;52.270;10.544;2023-05-20T08:47:41;6.32;;;3.28;;
7529;SDS011;3806;52.270;10.544;2023-05-20T08:50:08;3.58;;;2.88;;
7529;SDS011;3806;52.270;10.544;2023-05-20T08:52:35;7.70;;;3.17;;
7529;SDS011;3806;52.270;10.544;2023-05-20T08:55:06;5.68;;;3.55;;
7529;SDS011;3806;52.270;10.544;2023-05-20T08:57:35;4.25;;;2.78;;
7529;SDS011;3806;52.270;10.544;2023-05-20T09:00:02;5.90;;;3.47;;
7529;SDS011;3806;52.270;10.544;2023-05-20T09:02:35;6.22;;;3.25;;
7529;SDS011;3806;52.270;10.544;2023-05-20T09:05:02;5.25;;;3.40;;
7529;SDS011;3806;52.270;10.544;2023-05-20T09:07:28;5.32;;;3.50;;
7529;SDS011;3806;52.270;10.544;2023-05-20T09:09:54;4.82;;;3.35;;
7529;SDS011;3806;52.270;10.544;2023-05-20T09:12:20;6.90;;;3.25;;
7529;SDS011;3806;52.270;10.544;2023-05-20T09:14:46;5.47;;;3.70;;
7529;SDS011;3806;52.270;10.544;2023-05-20T09:17:11;5.78;;;3.60;;
7529;SDS011;3806;52.270;10.544;2023-05-20T09:19:38;7.07;;;3.72;;
7529;SDS011;3806;52.270;10.544;2023-05-20T09:22:03;6.13;;;3.05;;
7529;SDS011;3806;52.270;10.544;2023-05-20T09:24:30;11.20;;;4.00;;
7529;SDS011;3806;52.270;10.544;2023-05-20T09:26:55;4.95;;;3.17;;
7529;SDS011;3806;52.270;10.544;2023-05-20T09:29:22;4.60;;;2.95;;
7529;SDS011;3806;52.270;10.544;2023-05-20T09:31:48;6.85;;;3.53;;
7529;SDS011;3806;52.270;10.544;2023-05-20T09:34:15;7.03;;;3.40;;
7529;SDS011;3806;52.270;10.544;2023-05-20T09:36:41;6.68;;;3.15;;
7529;SDS011;3806;52.270;10.544;2023-05-20T09:39:10;4.80;;;3.25;;
7529;SDS011;3806;52.270;10.544;2023-05-20T09:41:41;5.75;;;3.28;;
7529;SDS011;3806;52.270;10.544;2023-05-20T09:44:19;5.28;;;3.63;;
7529;SDS011;3806;52.270;10.544;2023-05-20T09:46:46;4.80;;;3.20;;
7529;SDS011;3806;52.270;10.544;2023-05-20T09:49:13;5.07;;;3.65;;
7529;SDS011;3806;52.270;10.544;2023-05-20T09:51:40;7.03;;;3.55;;
7529;SDS011;3806;52.270;10.544;2023-05-20T09:54:07;4.72;;;3.33;;
7529;SDS011;3806;52.270;10.544;2023-05-20T09:56:34;5.75;;;3.05;;
7529;SDS011;3806;52.270;10.544;2023-05-20T09:59:01;5.40;;;3.38;;
7529;SDS011;3806;52.270;10.544;2023-05-20T10:01:29;3.92;;;3.03;;
7529;SDS011;3806;52.270;10.544;2023-05-20T10:03:54;5.85;;;3.15;;
7529;SDS011;3806;52.270;10.544;2023-05-20T10:06:26;5.43;;;2.80;;
7529;SDS011;3806;52.270;10.544;2023-05-20T10:12:04;6.63;;;2.88;;
7529;SDS011;3806;52.270;10.544;2023-05-20T10:19:57;5.37;;;3.30;;
7529;SDS011;3806;52.270;10.544;2023-05-20T10:22:27;3.75;;;2.78;;
7529;SDS011;3806;52.270;10.544;2023-05-20T10:25:03;8.98;;;3.50;;
7529;SDS011;3806;52.270;10.544;2023-05-20T10:27:45;3.40;;;2.60;;
7529;SDS011;3806;52.270;10.544;2023-05-20T10:32:51;3.67;;;2.70;;
7529;SDS011;3806;52.270;10.544;2023-05-20T10:35:21;3.90;;;2.70;;
7529;SDS011;3806;52.270;10.544;2023-05-20T10:37:47;3.20;;;2.33;;
7529;SDS011;3806;52.270;10.544;2023-05-20T10:40:13;4.95;;;2.92;;
7529;SDS011;3806;52.270;10.544;2023-05-20T10:42:40;4.78;;;2.67;;
7529;SDS011;3806;52.270;10.544;2023-05-20T10:45:06;6.20;;;3.17;;
7529;SDS011;3806;52.270;10.544;2023-05-20T10:47:33;4.07;;;2.88;;
7529;SDS011;3806;52.270;10.544;2023-05-20T10:49:59;5.57;;;2.70;;
7529;SDS011;3806;52.270;10.544;2023-05-20T10:52:26;9.23;;;3.28;;
7529;SDS011;3806;52.270;10.544;2023-05-20T10:57:19;10.15;;;2.88;;
7529;SDS011;3806;52.270;10.544;2023-05-20T10:59:45;7.68;;;3.65;;
7529;SDS011;3806;52.270;10.544;2023-05-20T11:02:12;6.85;;;3.45;;
7529;SDS011;3806;52.270;10.544;2023-05-20T11:04:41;6.30;;;3.35;;
7529;SDS011;3806;52.270;10.544;2023-05-20T11:07:07;5.35;;;3.13;;
7529;SDS011;3806;52.270;10.544;2023-05-20T11:09:33;6.50;;;3.75;;
7529;SDS011;3806;52.270;10.544;2023-05-20T11:11:59;4.30;;;2.97;;
7529;SDS011;3806;52.270;10.544;2023-05-20T11:14:27;5.43;;;2.83;;
7529;SDS011;3806;52.270;10.544;2023-05-20T11:16:55;6.70;;;3.10;;
7529;SDS011;3806;52.270;10.544;2023-05-20T11:19:21;6.38;;;3.22;;
7529;SDS011;3806;52.270;10.544;2023-05-20T11:21:47;5.68;;;3.30;;
7529;SDS011;3806;52.270;10.544;2023-05-20T11:24:13;6.07;;;3.33;;
7529;SDS011;3806;52.270;10.544;2023-05-20T11:26:46;7.00;;;3.33;;
7529;SDS011;3806;52.270;10.544;2023-05-20T11:29:11;6.38;;;3.20;;
7529;SDS011;3806;52.270;10.544;2023-05-20T11:31:37;6.05;;;3.47;;
7529;SDS011;3806;52.270;10.544;2023-05-20T11:34:03;5.15;;;3.13;;
7529;SDS011;3806;52.270;10.544;2023-05-20T11:36:28;5.80;;;3.83;;
7529;SDS011;3806;52.270;10.544;2023-05-20T11:38:58;5.05;;;3.15;;
7529;SDS011;3806;52.270;10.544;2023-05-20T11:41:24;6.82;;;3.30;;
7529;SDS011;3806;52.270;10.544;2023-05-20T11:43:55;7.03;;;3.53;;
7529;SDS011;3806;52.270;10.544;2023-05-20T11:46:22;6.20;;;3.20;;
7529;SDS011;3806;52.270;10.544;2023-05-20T11:48:51;4.43;;;3.35;;
7529;SDS011;3806;52.270;10.544;2023-05-20T11:51:26;7.88;;;2.90;;
7529;SDS011;3806;52.270;10.544;2023-05-20T11:54:02;5.60;;;3.65;;
7529;SDS011;3806;52.270;10.544;2023-05-20T11:56:29;7.05;;;3.70;;
7529;SDS011;3806;52.270;10.544;2023-05-20T11:58:58;7.65;;;3.90;;
7529;SDS011;3806;52.270;10.544;2023-05-20T12:01:26;8.18;;;3.60;;
7529;SDS011;3806;52.270;10.544;2023-05-20T12:03:53;5.80;;;3.40;;
7529;SDS011;3806;52.270;10.544;2023-05-20T12:06:19;5.50;;;3.70;;
7529;SDS011;3806;52.270;10.544;2023-05-20T12:08:45;4.97;;;3.25;;
7529;SDS011;3806;52.270;10.544;2023-05-20T12:11:11;5.30;;;3.25;;
7529;SDS011;3806;52.270;10.544;2023-05-20T12:13:37;7.68;;;3.00;;
7529;SDS011;3806;52.270;10.544;2023-05-20T12:16:02;4.88;;;2.80;;
7529;SDS011;3806;52.270;10.544;2023-05-20T12:18:30;4.75;;;3.30;;
7529;SDS011;3806;52.270;10.544;2023-05-20T12:20:56;6.25;;;3.17;;
7529;SDS011;3806;52.270;10.544;2023-05-20T12:23:22;6.03;;;3.30;;
7529;SDS011;3806;52.270;10.544;2023-05-20T12:25:48;6.43;;;3.30;;
7529;SDS011;3806;52.270;10.544;2023-05-20T12:28:14;6.50;;;3.47;;
7529;SDS011;3806;52.270;10.544;2023-05-20T12:30:40;5.18;;;2.85;;
7529;SDS011;3806;52.270;10.544;2023-05-20T12:33:06;7.38;;;3.90;;
7529;SDS011;3806;52.270;10.544;2023-05-20T12:35:37;4.68;;;3.05;;
7529;SDS011;3806;52.270;10.544;2023-05-20T12:38:04;5.32;;;2.80;;
7529;SDS011;3806;52.270;10.544;2023-05-20T12:40:31;6.15;;;3.53;;
7529;SDS011;3806;52.270;10.544;2023-05-20T12:42:56;5.30;;;3.25;;
7529;SDS011;3806;52.270;10.544;2023-05-20T12:45:23;5.93;;;3.30;;
7529;SDS011;3806;52.270;10.544;2023-05-20T12:47:48;4.75;;;2.85;;
7529;SDS011;3806;52.270;10.544;2023-05-20T12:50:15;8.38;;;3.33;;
7529;SDS011;3806;52.270;10.544;2023-05-20T12:52:40;7.10;;;3.90;;
7529;SDS011;3806;52.270;10.544;2023-05-20T12:55:06;5.45;;;3.05;;
7529;SDS011;3806;52.270;10.544;2023-05-20T12:57:37;6.30;;;3.28;;
7529;SDS011;3806;52.270;10.544;2023-05-20T13:00:07;4.93;;;2.72;;
7529;SDS011;3806;52.270;10.544;2023-05-20T13:02:33;7.35;;;3.65;;
7529;SDS011;3806;52.270;10.544;2023-05-20T13:04:59;5.70;;;3.25;;
7529;SDS011;3806;52.270;10.544;2023-05-20T13:07:25;3.58;;;2.83;;
7529;SDS011;3806;52.270;10.544;2023-05-20T13:09:51;6.78;;;3.30;;
7529;SDS011;3806;52.270;10.544;2023-05-20T13:12:16;4.40;;;2.95;;
7529;SDS011;3806;52.270;10.544;2023-05-20T13:14:42;5.53;;;3.22;;
7529;SDS011;3806;52.270;10.544;2023-05-20T13:17:08;6.55;;;3.28;;
7529;SDS011;3806;52.270;10.544;2023-05-20T13:19:33;4.30;;;2.75;;
7529;SDS011;3806;52.270;10.544;2023-05-20T13:21:59;5.03;;;3.13;;
7529;SDS011;3806;52.270;10.544;2023-05-20T13:24:24;3.80;;;2.80;;
7529;SDS011;3806;52.270;10.544;2023-05-20T13:26:50;6.80;;;3.10;;
7529;SDS011;3806;52.270;10.544;2023-05-20T13:29:15;7.10;;;3.13;;
7529;SDS011;3806;52.270;10.544;2023-05-20T13:31:41;4.80;;;3.05;;
7529;SDS011;3806;52.270;10.544;2023-05-20T13:34:07;5.40;;;3.78;;
7529;SDS011;3806;52.270;10.544;2023-05-20T13:36:33;6.70;;;3.60;;
7529;SDS011;3806;52.270;10.544;2023-05-20T13:38:58;5.50;;;3.30;;
7529;SDS011;3806;52.270;10.544;2023-05-20T13:41:24;5.13;;;3.08;;
7529;SDS011;3806;52.270;10.544;2023-05-20T13:43:50;4.68;;;2.75;;
7529;SDS011;3806;52.270;10.544;2023-05-20T13:46:16;6.80;;;3.50;;
7529;SDS011;3806;52.270;10.544;2023-05-20T13:48:42;6.47;;;4.00;;
7529;SDS011;3806;52.270;10.544;2023-05-20T13:51:07;4.40;;;2.90;;
7529;SDS011;3806;52.270;10.544;2023-05-20T13:53:33;5.93;;;3.40;;
7529;SDS011;3806;52.270;10.544;2023-05-20T13:55:59;6.32;;;3.20;;
7529;SDS011;3806;52.270;10.544;2023-05-20T13:58:24;5.13;;;2.92;;
7529;SDS011;3806;52.270;10.544;2023-05-20T14:00:50;4.30;;;3.00;;
7529;SDS011;3806;52.270;10.544;2023-05-20T14:03:16;4.95;;;3.03;;
7529;SDS011;3806;52.270;10.544;2023-05-20T14:05:41;5.82;;;3.25;;
7529;SDS011;3806;52.270;10.544;2023-05-20T14:08:07;4.53;;;2.85;;
7529;SDS011;3806;52.270;10.544;2023-05-20T14:10:32;4.55;;;2.78;;
7529;SDS011;3806;52.270;10.544;2023-05-20T14:12:58;4.40;;;3.22;;
7529;SDS011;3806;52.270;10.544;2023-05-20T14:15:25;5.70;;;3.60;;
7529;SDS011;3806;52.270;10.544;2023-05-20T14:17:54;7.63;;;3.30;;
7529;SDS011;3806;52.270;10.544;2023-05-20T14:20:23;5.90;;;3.13;;
7529;SDS011;3806;52.270;10.544;2023-05-20T14:22:50;4.38;;;2.75;;
7529;SDS011;3806;52.270;10.544;2023-05-20T14:25:16;6.32;;;3.50;;
7529;SDS011;3806;52.270;10.544;2023-05-20T14:27:42;5.25;;;2.97;;
7529;SDS011;3806;52.270;10.544;2023-05-20T14:30:08;6.43;;;3.78;;
7529;SDS011;3806;52.270;10.544;2023-05-20T14:32:34;4.60;;;3.28;;
7529;SDS011;3806;52.270;10.544;2023-05-20T14:34:59;6.72;;;3.15;;
7529;SDS011;3806;52.270;10.544;2023-05-20T14:37:25;5.18;;;3.13;;
7529;SDS011;3806;52.270;10.544;2023-05-20T14:39:52;4.72;;;3.20;;
7529;SDS011;3806;52.270;10.544;2023-05-20T14:42:20;6.22;;;3.28;;
7529;SDS011;3806;52.270;10.544;2023-05-20T14:44:46;4.90;;;3.13;;
7529;SDS011;3806;52.270;10.544;2023-05-20T14:47:11;5.80;;;2.85;;
7529;SDS011;3806;52.270;10.544;2023-05-20T14:49:40;4.53;;;3.03;;
7529;SDS011;3806;52.270;10.544;2023-05-20T14:52:06;5.18;;;2.95;;
7529;SDS011;3806;52.270;10.544;2023-05-20T14:54:32;4.15;;;3.00;;
7529;SDS011;3806;52.270;10.544;2023-05-20T14:56:57;5.75;;;3.35;;
7529;SDS011;3806;52.270;10.544;2023-05-20T14:59:23;4.93;;;3.22;;
7529;SDS011;3806;52.270;10.544;2023-05-20T15:01:48;3.85;;;2.90;;
7529;SDS011;3806;52.270;10.544;2023-05-20T15:04:14;5.20;;;3.00;;
7529;SDS011;3806;52.270;10.544;2023-05-20T15:06:39;6.25;;;2.47;;
7529;SDS011;3806;52.270;10.544;2023-05-20T15:09:05;8.65;;;2.90;;